Time;durP1;ratioP1;P1;durP2;ratioP2;P2;SDS_P1;SDS_P2;PMS_P1;PMS_P2;Temp;Humidity;BMP_temperature;BMP_pressure;BME280_temperature;BME280_humidity;BME280_pressure;Samples;Min_cycle;Max_cycle;Signal;HPM_P1;HPM_P2
2023/05/17 00:03:08;;;;;;;5.03;1.55;;;;;;;15.87;77.46;99922.19;5057351;28;20051;-82
2023/05/17 00:06:00;;;;;;;;;;;;;;;16.02;76.78;99923.97;5048898;28;20048;-82
2023/05/17 00:09:02;;;;;;;2.60;1.75;;;;;;;16.41;75.00;99931.91;5043782;28;19912;-80
2023/05/17 00:12:32;;;;;;;1.98;1.67;;;;;;;16.70;73.44;99933.88;5062167;28;20059;-81
2023/05/17 00:15:33;;;;;;;4.05;1.63;;;;;;;16.46;74.06;99917.88;5042649;28;20043;-81
2023/05/17 00:18:23;;;;;;;2.40;1.75;;;;;;;15.85;76.75;99919.03;5057620;28;20056;-80
2023/05/17 00:21:20;;;;;;;4.40;2.25;;;;;;;15.41;79.30;99924.19;5067450;28;20047;-82
2023/05/17 00:24:29;;;;;;;3.30;1.92;;;;;;;15.48;79.05;99915.31;5055559;28;20052;-82
2023/05/17 00:27:26;;;;;;;6.60;1.98;;;;;;;15.34;80.97;99913.91;5052503;28;20044;-82
2023/05/17 00:30:33;;;;;;;5.50;2.38;;;;;;;15.17;80.85;99913.63;5044183;28;20048;-81
2023/05/17 00:33:30;;;;;;;2.88;1.70;;;;;;;15.33;80.70;99917.81;5075596;28;20048;-83
2023/05/17 00:36:21;;;;;;;;;;;;;;;15.36;80.62;99916.28;5045794;28;20047;-83
2023/05/17 00:39:25;;;;;;;4.05;1.92;;;;;;;15.40;80.40;99920.66;5031800;28;19921;-80
2023/05/17 00:42:26;;;;;;;2.60;1.98;;;;;;;15.49;80.64;99914.16;5044268;28;20040;-82
2023/05/17 00:45:44;;;;;;;3.10;2.22;;;;;;;15.58;79.95;99901.00;5057194;28;20051;-83
2023/05/17 00:48:41;;;;;;;3.70;2.15;;;;;;;15.46;79.83;99903.91;5047475;28;20056;-83
2023/05/17 00:51:40;;;;;;;3.65;2.03;;;;;;;15.52;79.91;99897.00;5055806;28;20411;-82
2023/05/17 00:54:38;;;;;;;6.30;2.63;;;;;;;15.27;80.34;99900.09;5068237;28;20044;-83
2023/05/17 00:57:31;;;;;;;3.88;3.03;;;;;;;15.27;80.06;99902.84;5045790;28;20689;-81
2023/05/17 01:00:26;;;;;;;3.22;2.60;;;;;;;15.29;80.15;99902.47;5044824;28;20043;-81
2023/05/17 01:03:21;;;;;;;5.72;3.58;;;;;;;15.38;80.88;99903.03;5063369;28;20099;-82
2023/05/17 01:06:16;;;;;;;4.28;2.60;;;;;;;15.52;81.15;99897.00;5052829;28;20048;-80
2023/05/17 01:09:10;;;;;;;10.48;3.92;;;;;;;15.48;79.29;99899.66;5061310;28;20043;-80
2023/05/17 01:12:23;;;;;;;15.47;4.40;;;;;;;15.43;79.48;99896.44;5060997;28;20056;-80
2023/05/17 01:15:25;;;;;;;10.10;4.40;;;;;;;15.31;80.54;99886.47;5074676;28;20298;-80
2023/05/17 01:18:24;;;;;;;9.52;5.00;;;;;;;15.40;80.62;99895.22;5056655;28;20408;-81
2023/05/17 01:21:28;;;;;;;11.77;5.97;;;;;;;15.39;80.65;99896.38;5055061;28;20510;-81
2023/05/17 01:24:29;;;;;;;7.47;4.25;;;;;;;15.34;80.42;99893.94;5069867;28;20036;-81
2023/05/17 01:27:20;;;;;;;8.52;5.63;;;;;;;15.53;79.42;99896.63;5034594;28;20515;-82
2023/05/17 01:30:16;;;;;;;9.30;6.07;;;;;;;15.91;77.48;99901.09;5057829;28;20032;-81
2023/05/17 01:33:10;;;;;;;11.60;5.82;;;;;;;15.94;76.89;99897.63;5056660;28;20059;-80
2023/05/17 01:35:59;;;;;;;14.20;5.43;;;;;;;15.96;76.39;99900.78;5059669;28;20044;-80
2023/05/17 01:38:51;;;;;;;8.77;5.55;;;;;;;15.77;76.60;99906.38;5045845;28;20060;-80
2023/05/17 01:41:48;;;;;;;10.23;6.13;;;;;;;15.92;77.33;99904.63;5035489;28;20051;-79
2023/05/17 01:44:46;;;;;;;12.68;6.15;;;;;;;15.52;78.95;99916.19;5052226;28;20043;-80
2023/05/17 01:48:01;;;;;;;7.72;5.35;;;;;;;15.28;81.29;99923.63;5048175;28;20531;-79
2023/05/17 01:50:58;;;;;;;9.18;5.07;;;;;;;15.60;78.27;99926.88;5050047;28;20530;-82
2023/05/17 01:53:56;;;;;;;7.80;5.38;;;;;;;15.73;78.21;99932.97;5050231;28;20047;-80
2023/05/17 01:56:52;;;;;;;9.57;6.35;;;;;;;15.78;78.63;99929.91;5064233;28;20054;-82
2023/05/17 01:59:49;;;;;;;14.68;5.47;;;;;;;15.93;77.24;99934.44;5057542;28;20048;-78
2023/05/17 02:02:39;;;;;;;9.27;6.38;;;;;;;15.77;77.49;99937.34;5044592;28;20116;-79
2023/05/17 02:05:46;;;;;;;14.30;6.10;;;;;;;15.54;78.78;99939.34;5059543;28;20440;-78
2023/05/17 02:08:50;;;;;;;8.43;5.80;;;;;;;15.71;79.48;99938.00;5061863;28;20063;-81
2023/05/17 02:12:02;;;;;;;12.02;5.95;;;;;;;15.85;77.92;99946.44;5062346;28;20051;-80
2023/05/17 02:15:15;;;;;;;18.50;6.50;;;;;;;15.75;77.14;99944.34;5029643;28;20044;-80
2023/05/17 02:18:13;;;;;;;10.82;6.97;;;;;;;15.99;77.24;99951.38;5063333;28;20106;-81
2023/05/17 02:21:12;;;;;;;15.20;6.50;;;;;;;15.67;77.52;99943.44;5058865;28;20051;-79
2023/05/17 02:24:15;;;;;;;14.32;5.78;;;;;;;15.79;77.35;99948.72;5060543;28;20426;-79
2023/05/17 02:27:17;;;;;;;9.90;6.45;;;;;;;15.64;78.51;99952.41;5046698;28;20044;-78
2023/05/17 02:30:13;;;;;;;11.45;6.07;;;;;;;15.66;78.98;99952.03;5045636;28;20052;-80
2023/05/17 02:33:05;;;;;;;13.45;6.07;;;;;;;15.87;77.68;99951.56;5058598;28;20040;-81
2023/05/17 02:39:20;;;;;;;8.38;5.78;;;;;;;15.47;80.44;99960.31;5051977;28;20059;-80
2023/05/17 02:42:27;;;;;;;9.93;5.50;;;;;;;15.73;79.05;99971.34;5061460;28;20063;-81
2023/05/17 02:45:23;;;;;;;14.43;6.88;;;;;;;15.74;78.71;99965.50;5044932;28;20522;-81
2023/05/17 02:48:26;;;;;;;12.95;6.22;;;;;;;15.78;78.78;99971.03;5056874;28;20040;-82
2023/05/17 02:51:23;;;;;;;14.18;7.03;;;;;;;15.78;78.41;99977.31;5063034;28;20047;-81
2023/05/17 02:54:27;;;;;;;7.80;5.45;;;;;;;15.79;78.11;99978.88;5046365;28;20064;-82
2023/05/17 02:57:44;;;;;;;13.90;5.88;;;;;;;15.25;80.67;99981.84;5046138;28;20044;-82
2023/05/17 03:00:48;;;;;;;13.98;6.47;;;;;;;14.84;82.89;99982.63;5034176;28;20052;-82
2023/05/17 03:03:46;;;;;;;17.77;7.05;;;;;;;15.02;83.37;99986.53;5054733;28;20530;-79
2023/05/17 03:06:41;;;;;;;12.07;5.85;;;;;;;15.20;81.81;99984.88;5061781;28;20056;-78
2023/05/17 03:09:36;;;;;;;11.35;6.88;;;;;;;15.07;82.45;99991.69;5059438;28;20047;-78
2023/05/17 03:12:30;;;;;;;10.20;6.68;;;;;;;15.11;81.92;99999.97;5059756;28;20051;-82
2023/05/17 03:15:25;;;;;;;13.32;6.40;;;;;;;15.14;82.85;100000.03;5055603;28;20688;-81
2023/05/17 03:18:19;;;;;;;13.75;6.10;;;;;;;15.50;81.00;100004.19;5056424;28;20063;-81
2023/05/17 03:21:14;;;;;;;9.20;6.57;;;;;;;15.43;80.31;100014.25;5044026;28;20052;-81
2023/05/17 03:24:09;;;;;;;9.20;6.45;;;;;;;15.58;80.63;100010.63;5058394;28;20055;-80
2023/05/17 03:27:01;;;;;;;9.73;5.83;;;;;;;15.55;78.77;100022.31;5054877;28;20047;-81
2023/05/17 03:29:55;;;;;;;10.93;6.85;;;;;;;15.23;81.22;100029.94;5045189;28;20286;-81
2023/05/17 03:32:51;;;;;;;12.55;6.82;;;;;;;15.19;83.20;100029.84;5050545;28;20518;-82
2023/05/17 03:35:45;;;;;;;7.88;4.72;;;;;;;15.45;81.60;100037.38;5053678;28;20051;-80
2023/05/17 03:38:38;;;;;;;8.02;6.30;;;;;;;15.68;79.29;100045.66;5045919;28;20400;-82
2023/05/17 03:41:33;;;;;;;9.57;7.07;;;;;;;15.23;81.13;100038.97;5044498;28;20047;-82
2023/05/17 03:44:28;;;;;;;17.08;7.72;;;;;;;15.19;82.42;100048.25;5043251;28;20039;-82
2023/05/17 03:47:26;;;;;;;9.95;5.70;;;;;;;15.40;81.68;100052.19;5054161;28;20399;-83
2023/05/17 03:50:20;;;;;;;15.13;6.72;;;;;;;15.53;81.32;100057.53;5050533;28;20047;-82
2023/05/17 03:53:15;;;;;;;12.50;6.45;;;;;;;15.13;81.99;100072.41;5049349;28;20523;-82
2023/05/17 03:56:10;;;;;;;9.52;5.47;;;;;;;15.06;83.75;100077.72;5063652;28;20047;-82
2023/05/17 03:59:02;;;;;;;10.27;6.55;;;;;;;15.33;81.36;100073.19;5038853;28;20052;-82
2023/05/17 04:01:56;;;;;;;9.63;7.10;;;;;;;15.13;82.39;100077.09;5063996;28;20044;-82
2023/05/17 04:05:01;;;;;;;11.60;7.03;;;;;;;15.31;81.18;100089.97;5046383;28;20039;-83
2023/05/17 04:08:00;;;;;;;8.98;6.43;;;;;;;15.30;82.48;100088.38;5042631;28;20159;-80
2023/05/17 04:11:09;;;;;;;10.48;6.15;;;;;;;15.10;82.59;100088.75;5056063;28;20538;-81
2023/05/17 04:14:04;;;;;;;13.75;6.93;;;;;;;15.18;82.34;100102.25;5065312;28;20692;-81
2023/05/17 04:16:59;;;;;;;14.13;7.45;;;;;;;15.13;83.56;100104.47;5056585;28;20534;-80
2023/05/17 04:19:56;;;;;;;10.77;6.57;;;;;;;15.37;82.23;100104.19;5049020;28;20127;-82
2023/05/17 04:22:53;;;;;;;12.70;7.15;;;;;;;15.35;81.20;100112.75;5064307;28;20067;-82
2023/05/17 04:25:50;;;;;;;12.18;6.55;;;;;;;15.05;83.37;100119.97;5045074;28;20051;-83
2023/05/17 04:28:44;;;;;;;10.57;6.70;;;;;;;15.03;83.88;100118.75;5026680;28;20043;-81
2023/05/17 04:31:36;;;;;;;10.23;7.10;;;;;;;15.16;83.22;100117.44;5043827;28;20044;-81
2023/05/17 04:34:30;;;;;;;11.18;7.13;;;;;;;15.25;82.07;100124.28;5042839;28;20044;-82
2023/05/17 04:37:25;;;;;;;12.52;6.85;;;;;;;14.97;83.79;100123.72;5057466;28;20447;-80
2023/05/17 04:40:21;;;;;;;12.38;6.93;;;;;;;14.94;85.40;100121.66;5061400;28;20047;-83
2023/05/17 04:43:11;;;;;;;11.90;7.35;;;;;;;15.24;84.17;100128.16;5044273;28;20519;-83
2023/05/17 04:46:08;;;;;;;13.23;8.18;;;;;;;15.16;83.09;100125.66;5064820;28;20050;-84
2023/05/17 04:48:57;;;;;;;10.35;7.32;;;;;;;14.88;85.50;100132.09;5054539;28;20044;-82
2023/05/17 04:51:47;;;;;;;19.05;8.23;;;;;;;14.95;85.06;100137.75;5085542;28;20043;-84
2023/05/17 04:54:42;;;;;;;16.25;8.45;;;;;;;14.86;86.53;100134.44;5065408;28;20534;-82
2023/05/17 04:57:36;;;;;;;8.18;5.88;;;;;;;15.19;86.33;100133.94;5047846;28;20063;-81
2023/05/17 05:00:36;;;;;;;13.30;7.07;;;;;;;15.65;82.56;100137.63;5051592;28;20047;-82
2023/05/17 05:03:31;;;;;;;12.63;7.72;;;;;;;15.83;80.56;100148.94;5055990;28;20044;-82
2023/05/17 05:06:26;;;;;;;7.53;4.97;;;;;;;15.70;81.25;100153.75;5068260;28;20040;-82
2023/05/17 05:09:21;;;;;;;11.85;6.55;;;;;;;15.66;82.12;100152.13;5041598;28;20043;-82
2023/05/17 05:12:15;;;;;;;12.13;6.70;;;;;;;15.66;82.56;100157.59;5049071;28;20047;-81
2023/05/17 05:15:11;;;;;;;9.13;6.40;;;;;;;15.65;82.76;100158.75;5049112;28;20047;-81
2023/05/17 05:18:06;;;;;;;22.10;7.40;;;;;;;15.77;81.79;100161.34;5043139;28;20040;-81
2023/05/17 05:21:01;;;;;;;17.25;7.60;;;;;;;15.86;81.73;100164.63;5071105;28;20057;-81
2023/05/17 05:23:53;;;;;;;;;;;;;;;15.97;81.63;100171.13;5048789;28;20060;-83
2023/05/17 05:26:48;;;;;;;10.77;7.07;;;;;;;15.92;81.52;100165.94;5038570;28;20379;-78
2023/05/17 05:29:41;;;;;;;12.13;7.65;;;;;;;16.07;81.03;100176.00;5047978;28;20048;-84
2023/05/17 05:32:33;;;;;;;19.70;6.15;;;;;;;16.41;80.27;100181.66;5055068;28;20039;-84
2023/05/17 05:35:28;;;;;;;93.57;21.50;;;;;;;17.03;77.82;100191.25;5052754;28;20039;-77
2023/05/17 05:38:23;;;;;;;18.30;9.80;;;;;;;17.41;74.93;100182.75;5049806;28;20412;-77
2023/05/17 05:41:17;;;;;;;16.13;8.40;;;;;;;17.40;74.87;100186.66;5048384;28;20063;-77
2023/05/17 05:44:12;;;;;;;17.08;7.25;;;;;;;17.71;72.59;100188.25;5055980;28;20055;-77
2023/05/17 05:47:07;;;;;;;11.18;8.10;;;;;;;17.78;72.09;100196.56;5049819;28;20043;-77
2023/05/17 05:50:01;;;;;;;11.65;7.53;;;;;;;17.96;71.19;100191.25;5054699;28;20403;-78
2023/05/17 05:52:56;;;;;;;12.90;5.40;;;;;;;18.10;70.76;100207.13;5059175;28;20406;-78
2023/05/17 05:55:48;;;;;;;15.27;8.57;;;;;;;18.09;70.44;100208.28;5052334;28;20048;-77
2023/05/17 05:58:43;;;;;;;18.10;8.75;;;;;;;18.15;70.22;100209.53;5054355;28;20040;-77
2023/05/17 06:01:36;;;;;;;10.10;7.28;;;;;;;18.21;69.82;100202.50;5055907;28;20059;-77
2023/05/17 06:04:28;;;;;;;22.60;9.23;;;;;;;18.18;69.87;100217.03;5062998;28;20050;-77
2023/05/17 06:07:23;;;;;;;17.33;8.27;;;;;;;18.17;69.49;100219.00;5075957;28;20058;-77
2023/05/17 06:10:17;;;;;;;8.60;5.85;;;;;;;18.19;69.48;100221.34;5085898;28;20051;-78
2023/05/17 06:13:12;;;;;;;12.25;9.52;;;;;;;17.30;73.61;100219.50;5064457;28;20063;-83
2023/05/17 06:16:04;;;;;;;16.67;8.95;;;;;;;16.24;80.08;100213.94;5067002;28;20040;-85
2023/05/17 06:18:59;;;;;;;16.88;9.30;;;;;;;15.78;83.42;100218.56;5086405;28;20040;-84
2023/05/17 06:21:53;;;;;;;18.90;10.50;;;;;;;15.77;84.24;100218.91;5048844;28;20048;-84
2023/05/17 06:24:47;;;;;;;17.53;10.93;;;;;;;15.68;85.00;100218.34;5080802;28;20266;-85
2023/05/17 06:27:42;;;;;;;9.65;7.15;;;;;;;15.57;84.60;100225.56;5081121;28;20302;-84
2023/05/17 06:30:37;;;;;;;10.60;7.65;;;;;;;15.61;83.98;100224.47;5080849;28;20063;-85
2023/05/17 06:33:31;;;;;;;15.57;9.90;;;;;;;15.69;83.87;100219.94;5060152;28;20510;-82
2023/05/17 06:36:23;;;;;;;8.82;7.00;;;;;;;15.53;83.67;100233.72;5079003;28;20051;-82
2023/05/17 06:39:17;;;;;;;13.23;8.00;;;;;;;15.55;83.88;100227.84;5068375;28;20059;-82
2023/05/17 06:42:12;;;;;;;11.73;8.07;;;;;;;15.49;83.51;100232.78;5086148;28;20062;-82
2023/05/17 06:45:07;;;;;;;12.82;7.78;;;;;;;15.44;83.76;100224.09;5085922;28;20067;-83
2023/05/17 06:48:01;;;;;;;7.75;5.80;;;;;;;15.43;82.69;100237.00;5081137;28;20387;-82
2023/05/17 06:50:56;;;;;;;14.27;8.27;;;;;;;15.44;83.62;100240.53;5082004;28;20047;-82
2023/05/17 06:53:51;;;;;;;14.52;8.80;;;;;;;15.47;85.25;100240.59;5100630;28;20070;-83
2023/05/17 06:56:43;;;;;;;10.97;6.97;;;;;;;15.77;82.38;100235.38;5100784;28;20047;-83
2023/05/17 06:59:37;;;;;;;12.30;7.53;;;;;;;15.67;82.50;100236.75;5077200;28;20309;-82
2023/05/17 07:02:32;;;;;;;6.95;4.93;;;;;;;15.80;81.10;100248.34;5097489;28;20126;-82
2023/05/17 07:05:26;;;;;;;12.40;7.63;;;;;;;15.76;81.60;100252.97;5083870;28;20051;-83
2023/05/17 07:08:21;;;;;;;16.23;7.63;;;;;;;15.78;81.99;100256.16;5056949;28;20539;-83
2023/05/17 07:11:15;;;;;;;12.65;7.15;;;;;;;15.76;80.29;100247.47;5056906;28;20812;-83
2023/05/17 07:14:10;;;;;;;12.90;7.10;;;;;;;16.01;80.17;100261.69;5056065;28;20048;-86
2023/05/17 07:17:04;;;;;;;11.33;6.73;;;;;;;16.05;80.42;100270.78;5054053;28;20404;-82
2023/05/17 07:19:59;;;;;;;9.73;6.93;;;;;;;16.17;79.49;100270.59;5046987;28;20286;-84
2023/05/17 07:22:54;;;;;;;12.85;6.85;;;;;;;16.12;79.41;100268.16;5046417;28;20044;-83
2023/05/17 07:25:48;;;;;;;10.85;6.75;;;;;;;15.99;79.93;100264.00;5073299;28;20044;-82
2023/05/17 07:28:43;;;;;;;9.17;6.07;;;;;;;16.03;80.67;100267.59;5082903;28;20040;-83
2023/05/17 07:31:37;;;;;;;15.55;6.85;;;;;;;16.19;79.38;100266.34;5050597;28;20411;-83
2023/05/17 07:34:31;;;;;;;12.33;4.83;;;;;;;16.05;79.45;100268.81;5050482;28;20052;-83
2023/05/17 07:37:26;;;;;;;10.25;4.75;;;;;;;15.97;78.09;100269.84;5087052;28;20043;-82
2023/05/17 07:40:24;;;;;;;8.32;4.57;;;;;;;15.95;77.69;100263.91;5073194;28;20154;-84
2023/05/17 07:43:18;;;;;;;8.75;6.30;;;;;;;16.06;78.29;100264.91;5075711;28;20050;-82
2023/05/17 07:46:13;;;;;;;8.93;5.95;;;;;;;16.23;78.45;100269.97;5068613;28;20420;-83
2023/05/17 07:49:07;;;;;;;19.73;7.40;;;;;;;16.10;78.36;100262.25;5063156;28;20435;-84
2023/05/17 07:51:57;;;;;;;7.53;5.45;;;;;;;16.10;78.10;100263.03;5095951;28;20047;-82
2023/05/17 07:54:51;;;;;;;12.95;6.63;;;;;;;16.21;77.42;100264.03;5071764;28;20040;-83
2023/05/17 07:57:46;;;;;;;9.18;6.07;;;;;;;16.23;78.09;100261.72;5072830;28;20415;-83
2023/05/17 08:00:41;;;;;;;11.70;7.63;;;;;;;16.20;78.74;100267.94;5044558;28;20525;-83
2023/05/17 08:03:36;;;;;;;13.85;8.55;;;;;;;16.37;78.63;100271.38;5051329;28;20066;-83
2023/05/17 08:06:30;;;;;;;18.02;8.40;;;;;;;16.61;76.94;100282.00;5081644;28;20412;-83
2023/05/17 08:09:22;;;;;;;11.70;7.15;;;;;;;16.71;74.40;100286.13;5056722;28;20099;-82
2023/05/17 08:12:14;;;;;;;10.55;7.35;;;;;;;17.09;73.51;100286.75;5077037;28;20047;-82
2023/05/17 08:15:08;;;;;;;13.15;7.40;;;;;;;17.39;71.59;100286.78;5078744;28;20043;-82
2023/05/17 08:18:03;;;;;;;10.53;6.00;;;;;;;17.61;69.49;100290.66;5057526;28;20515;-83
2023/05/17 08:20:57;;;;;;;8.57;5.13;;;;;;;17.18;69.57;100300.22;5059247;28;20055;-83
2023/05/17 08:23:52;;;;;;;9.45;4.43;;;;;;;17.47;69.27;100301.44;5070282;28;20400;-83
2023/05/17 08:26:47;;;;;;;5.85;4.20;;;;;;;17.21;69.64;100302.25;5052368;28;20068;-83
2023/05/17 08:29:41;;;;;;;7.10;3.85;;;;;;;17.38;68.91;100303.63;5058036;28;20040;-84
2023/05/17 08:32:36;;;;;;;12.27;5.60;;;;;;;17.41;67.41;100305.66;5078619;28;20051;-82
2023/05/17 08:35:30;;;;;;;6.90;5.22;;;;;;;17.72;67.28;100308.09;5041906;28;20044;-82
2023/05/17 08:38:25;;;;;;;12.25;5.82;;;;;;;18.04;66.99;100322.22;5050902;28;20052;-82
2023/05/17 08:41:20;;;;;;;11.13;5.07;;;;;;;17.89;66.24;100323.22;5064088;28;20653;-82
2023/05/17 08:44:15;;;;;;;5.15;3.88;;;;;;;18.22;65.39;100322.44;5063926;28;20404;-82
2023/05/17 08:47:11;;;;;;;11.13;5.45;;;;;;;19.02;63.84;100331.91;5078678;28;20048;-82
2023/05/17 08:50:05;;;;;;;10.45;4.57;;;;;;;18.54;63.37;100344.88;5058338;28;20039;-82
2023/05/17 08:53:00;;;;;;;6.07;2.22;;;;;;;18.30;61.22;100343.38;5075036;28;20506;-82
2023/05/17 08:55:55;;;;;;;10.02;3.80;;;;;;;18.38;62.24;100348.59;5064842;28;20066;-82
2023/05/17 08:58:53;;;;;;;6.78;3.20;;;;;;;18.25;62.36;100346.47;5052163;28;20052;-81
2023/05/17 09:01:49;;;;;;;6.53;3.00;;;;;;;18.34;60.81;100346.94;5076453;28;20051;-82
2023/05/17 09:04:39;;;;;;;8.35;2.88;;;;;;;18.57;61.09;100344.88;5087846;28;20411;-83
2023/05/17 09:07:34;;;;;;;5.22;3.03;;;;;;;19.16;59.75;100351.31;5072627;28;20047;-81
2023/05/17 09:10:29;;;;;;;6.53;2.92;;;;;;;19.40;57.91;100361.72;5077450;28;20398;-81
2023/05/17 09:13:23;;;;;;;5.60;3.10;;;;;;;19.18;59.24;100360.00;5067360;28;20047;-81
2023/05/17 09:16:20;;;;;;;4.88;3.33;;;;;;;19.05;58.58;100362.25;5137050;22;20063;-85
2023/05/17 09:19:15;;;;;;;10.23;3.63;;;;;;;18.81;61.25;100368.34;5079013;28;20055;-82
2023/05/17 09:22:09;;;;;;;10.88;3.50;;;;;;;19.35;60.78;100369.59;5081570;28;20044;-85
2023/05/17 09:25:02;;;;;;;8.15;3.88;;;;;;;19.50;60.12;100365.78;5090386;28;20047;-88
2023/05/17 09:28:02;;;;;;;9.05;4.00;;;;;;;19.82;58.74;100372.28;5069974;28;20043;-84
2023/05/17 09:30:56;;;;;;;4.50;3.22;;;;;;;19.69;58.91;100368.28;5083987;28;20399;-83
2023/05/17 09:33:52;;;;;;;9.98;3.95;;;;;;;19.78;58.72;100370.69;5087680;28;20052;-84
2023/05/17 09:36:46;;;;;;;6.32;4.72;;;;;;;18.67;62.01;100363.47;5078358;28;20442;-84
2023/05/17 09:39:41;;;;;;;5.25;3.58;;;;;;;19.75;59.03;100368.69;5067362;28;20052;-83
2023/05/17 09:42:37;;;;;;;10.88;4.57;;;;;;;19.57;59.27;100372.13;5079574;28;20063;-84
2023/05/17 09:45:29;;;;;;;14.40;5.53;;;;;;;19.89;58.26;100377.06;5066128;28;20544;-84
2023/05/17 09:48:24;;;;;;;7.80;4.10;;;;;;;19.91;58.34;100372.72;5080817;28;20036;-84
2023/05/17 09:51:18;;;;;;;4.72;3.10;;;;;;;19.95;59.25;100368.03;5084251;28;20514;-84
2023/05/17 09:54:11;;;;;;;4.93;3.97;;;;;;;19.95;58.92;100372.75;5070949;28;20052;-83
2023/05/17 09:57:08;;;;;;;5.80;3.97;;;;;;;19.79;59.75;100369.50;5065350;28;20047;-84
2023/05/17 10:00:00;;;;;;;7.07;4.97;;;;;;;19.80;60.27;100382.94;5082086;28;20043;-84
2023/05/17 10:02:54;;;;;;;6.65;4.07;;;;;;;19.82;59.79;100377.00;5049774;28;20044;-84
2023/05/17 10:05:49;;;;;;;9.23;4.32;;;;;;;19.91;59.30;100391.28;5065301;28;20055;-84
2023/05/17 10:08:47;;;;;;;9.23;4.15;;;;;;;20.19;58.28;100393.38;5062699;28;20044;-84
2023/05/17 10:11:42;;;;;;;7.43;4.32;;;;;;;20.69;57.17;100395.16;5065279;28;20048;-84
2023/05/17 10:14:36;;;;;;;;;;;;;;;20.44;57.01;100403.38;5070109;28;20047;-85
2023/05/17 10:17:32;;;;;;;8.40;4.15;;;;;;;20.38;56.40;100396.63;5067305;28;19912;-84
2023/05/17 10:20:24;;;;;;;4.65;3.22;;;;;;;20.33;56.88;100402.53;5075012;28;20296;-84
2023/05/17 10:23:21;;;;;;;6.25;3.30;;;;;;;19.37;58.23;100398.34;5063494;28;20059;-84
2023/05/17 10:26:15;;;;;;;7.78;3.67;;;;;;;18.97;56.80;100396.44;5060521;28;20051;-84
2023/05/17 10:29:08;;;;;;;4.75;3.05;;;;;;;19.55;57.60;100396.56;5064685;28;20036;-84
2023/05/17 10:32:06;;;;;;;6.53;4.13;;;;;;;19.71;58.40;100396.25;5067136;28;20047;-85
2023/05/17 10:34:59;;;;;;;9.38;4.57;;;;;;;19.78;57.53;100395.50;5066116;28;20047;-84
2023/05/17 10:37:51;;;;;;;7.10;3.45;;;;;;;19.93;58.34;100400.72;5057961;28;20056;-84
2023/05/17 10:40:47;;;;;;;6.93;4.25;;;;;;;19.62;59.48;100396.59;5073647;28;20052;-84
2023/05/17 10:43:43;;;;;;;6.30;4.07;;;;;;;19.83;58.01;100390.44;5074790;28;20059;-82
2023/05/17 10:46:37;;;;;;;5.55;3.50;;;;;;;20.37;56.36;100397.81;5075200;28;20067;-82
2023/05/17 10:49:40;;;;;;;11.00;4.72;;;;;;;20.66;54.96;100400.69;5081094;28;20059;-82
2023/05/17 10:52:35;;;;;;;6.38;3.90;;;;;;;20.05;54.90;100410.66;5074311;28;20044;-81
2023/05/17 10:55:56;;;;;;;8.32;4.15;;;;;;;19.76;54.62;100408.91;5069802;28;20036;-81
2023/05/17 10:58:48;;;;;;;8.13;3.65;;;;;;;20.78;51.12;100414.91;5071373;28;20055;-80
2023/05/17 11:01:59;;;;;;;5.40;3.13;;;;;;;20.66;50.38;100411.72;5078798;28;20055;-82
2023/05/17 11:04:54;;;;;;;3.42;2.38;;;;;;;21.00;49.58;100406.66;5064830;28;20443;-83
2023/05/17 11:07:50;;;;;;;5.18;3.28;;;;;;;21.11;50.88;100416.56;5070041;28;20040;-82
2023/05/17 11:11:01;;;;;;;5.28;3.22;;;;;;;19.99;51.91;100406.69;5076887;28;20048;-83
2023/05/17 11:13:58;;;;;;;6.78;3.33;;;;;;;20.10;52.91;100412.25;5080528;28;20051;-85
2023/05/17 11:16:55;;;;;;;5.15;3.30;;;;;;;19.42;55.44;100413.75;5066077;28;20052;-84
2023/05/17 11:20:01;;;;;;;;;;;;;;;19.50;54.92;100416.25;5056639;28;20039;-85
2023/05/17 11:23:03;;;;;;;4.28;2.90;;;;;;;19.22;55.16;100411.25;5075469;28;19912;-84
2023/05/17 11:26:13;;;;;;;5.10;2.80;;;;;;;19.31;56.80;100430.22;5058744;28;20047;-85
2023/05/17 11:29:14;;;;;;;5.25;2.35;;;;;;;19.27;55.62;100428.59;5075587;28;20036;-85
2023/05/17 11:32:08;;;;;;;3.92;2.22;;;;;;;19.36;56.43;100420.78;5073855;28;20039;-85
2023/05/17 11:35:04;;;;;;;5.60;2.20;;;;;;;19.38;55.58;100429.47;5082474;28;20043;-85
2023/05/17 11:38:12;;;;;;;4.53;2.00;;;;;;;19.28;51.00;100414.44;5058144;28;20070;-85
2023/05/17 11:41:23;;;;;;;4.38;2.75;;;;;;;19.44;54.80;100425.22;5085313;28;20051;-85
2023/05/17 11:44:24;;;;;;;2.83;1.50;;;;;;;19.39;53.04;100426.34;5059235;28;20620;-85
2023/05/17 11:47:18;;;;;;;4.50;2.13;;;;;;;19.45;54.86;100435.91;5078232;28;20043;-86
2023/05/17 11:50:13;;;;;;;5.32;2.63;;;;;;;19.43;57.11;100437.41;5066890;28;20043;-84
2023/05/17 11:53:06;;;;;;;1.48;0.98;;;;;;;19.31;52.72;100430.22;5041995;28;20520;-86
2023/05/17 11:56:04;;;;;;;1.83;0.80;;;;;;;19.33;52.50;100430.63;5075922;28;20044;-86
2023/05/17 11:59:01;;;;;;;1.73;0.85;;;;;;;19.39;53.64;100431.06;5058324;28;20507;-85
2023/05/17 12:01:55;;;;;;;2.85;0.85;;;;;;;19.34;51.68;100439.69;5074517;28;20048;-85
2023/05/17 12:04:50;;;;;;;5.80;1.00;;;;;;;19.34;53.68;100437.75;5064883;28;20047;-86
2023/05/17 12:07:42;;;;;;;1.85;0.90;;;;;;;19.29;52.88;100449.13;5073030;28;20525;-86
2023/05/17 12:10:37;;;;;;;3.95;1.52;;;;;;;19.28;53.07;100452.25;5057256;28;20443;-86
2023/05/17 12:13:39;;;;;;;2.55;1.48;;;;;;;19.30;53.36;100445.16;5064236;28;20052;-84
2023/05/17 12:16:36;;;;;;;1.85;0.70;;;;;;;19.15;51.85;100452.50;5068759;28;20047;-85
2023/05/17 12:19:25;;;;;;;0.67;0.60;;;;;;;19.32;52.09;100453.84;5062865;28;20043;-85
2023/05/17 12:22:20;;;;;;;2.47;0.80;;;;;;;19.30;53.57;100456.19;5058975;28;20403;-85
2023/05/17 12:25:22;;;;;;;9.27;0.88;;;;;;;19.35;53.12;100464.13;5077674;28;20040;-85
2023/05/17 12:28:21;;;;;;;1.27;0.60;;;;;;;19.36;53.26;100465.72;5053931;28;20056;-85
2023/05/17 12:31:21;;;;;;;3.33;1.30;;;;;;;19.12;52.46;100463.50;5064780;28;20040;-85
2023/05/17 12:34:15;;;;;;;2.53;0.60;;;;;;;19.15;51.78;100474.56;5059816;28;20051;-86
2023/05/17 12:37:05;;;;;;;3.50;0.50;;;;;;;19.17;52.65;100472.22;5075929;28;20043;-86
2023/05/17 12:40:01;;;;;;;3.53;0.60;;;;;;;19.15;51.94;100468.25;5082433;28;20052;-86
2023/05/17 12:43:00;;;;;;;1.17;0.50;;;;;;;19.13;51.75;100476.13;5062428;28;20051;-86
2023/05/17 12:45:54;;;;;;;0.80;0.50;;;;;;;19.11;51.79;100481.22;5062708;28;20052;-86
2023/05/17 12:48:49;;;;;;;3.95;1.10;;;;;;;19.27;51.33;100479.03;5061711;28;20048;-86
2023/05/17 12:51:43;;;;;;;;;;;;;;;19.31;52.83;100485.34;5063785;28;20071;-87
2023/05/17 12:54:37;;;;;;;1.90;1.38;;;;;;;19.28;55.17;100485.34;5065711;28;19913;-84
2023/05/17 12:57:29;;;;;;;2.50;1.13;;;;;;;19.17;52.77;100479.72;5079969;28;20063;-84
2023/05/17 13:00:25;;;;;;;4.43;1.60;;;;;;;19.38;52.12;100484.63;5066926;28;20041;-85
2023/05/17 13:03:15;;;;;;;2.25;1.55;;;;;;;19.38;53.72;100481.88;5075795;28;20051;-85
2023/05/17 13:06:09;;;;;;;6.60;2.15;;;;;;;19.55;55.01;100478.53;5077674;28;20040;-86
2023/05/17 13:09:04;;;;;;;3.00;1.63;;;;;;;19.46;53.35;100476.06;5063298;28;20407;-85
2023/05/17 13:11:58;;;;;;;2.50;1.90;;;;;;;19.39;51.83;100480.72;5049556;28;20512;-85
2023/05/17 13:14:53;;;;;;;4.75;2.15;;;;;;;19.32;55.34;100489.69;5058996;28;20531;-84
2023/05/17 13:17:48;;;;;;;;;;;;;;;19.38;55.29;100496.47;5071577;28;20055;-84
2023/05/17 13:20:40;;;;;;;3.58;1.88;;;;;;;19.44;55.31;100485.88;5071840;28;19916;-85
2023/05/17 13:23:35;;;;;;;2.50;1.60;;;;;;;19.25;54.38;100475.84;5059310;28;20048;-85
2023/05/17 13:26:27;;;;;;;4.30;1.75;;;;;;;19.11;54.36;100482.00;5077319;28;20063;-83
2023/05/17 13:29:19;;;;;;;2.67;2.20;;;;;;;19.09;54.12;100483.56;5068080;28;20398;-84
2023/05/17 13:32:12;;;;;;;3.75;1.17;;;;;;;19.24;53.23;100488.06;5080481;28;20047;-84
2023/05/17 13:35:04;;;;;;;3.60;0.80;;;;;;;19.21;51.65;100495.13;5070492;28;20040;-84
2023/05/17 13:37:56;;;;;;;1.55;0.70;;;;;;;19.16;51.43;100486.38;5066086;28;20059;-85
2023/05/17 13:40:51;;;;;;;1.08;0.90;;;;;;;19.29;51.18;100487.72;5062183;28;20526;-85
2023/05/17 13:43:45;;;;;;;2.05;1.30;;;;;;;19.26;54.47;100493.19;5073029;28;20043;-85